Time;durP1;ratioP1;P1;durP2;ratioP2;P2;SDS_P1;SDS_P2;PMS_P1;PMS_P2;Temp;Humidity;BMP_temperature;BMP_pressure;BME280_temperature;BME280_humidity;BME280_pressure;Samples;Min_cycle;Max_cycle;Signal;HPM_P1;HPM_P2
2022/09/09 00:00:48;;;;;;;17.30;15.60;;;14.50;99.90;;;;;;5097085;28;20478;-73
2022/09/09 00:04:00;;;;;;;23.43;20.87;;;14.60;99.90;;;;;;5099421;28;20966;-74
2022/09/09 00:07:34;;;;;;;;;;;;;;;;;;;;;
2022/09/09 00:11:00;;;;;;;24.33;20.57;;;14.60;99.90;;;;;;5097797;28;20445;-73
2022/09/09 00:14:05;;;;;;;24.40;21.80;;;14.60;99.90;;;;;;5093614;28;20504;-74
2022/09/09 00:17:16;;;;;;;24.83;22.07;;;14.60;99.90;;;;;;5091187;28;20799;-74
2022/09/09 00:20:18;;;;;;;24.47;21.60;;;14.60;99.90;;;;;;5095206;28;20448;-73
2022/09/09 00:23:47;;;;;;;27.50;22.70;;;14.70;99.90;;;;;;5095026;28;20480;-74
2022/09/09 00:26:45;;;;;;;26.80;22.70;;;14.70;99.90;;;;;;5097297;28;20436;-74
2022/09/09 00:30:01;;;;;;;25.50;21.20;;;14.70;99.90;;;;;;5096344;28;20563;-74
2022/09/09 00:33:05;;;;;;;24.17;21.60;;;14.70;99.90;;;;;;5097884;28;20476;-73
2022/09/09 00:36:23;;;;;;;28.90;23.07;;;14.80;99.90;;;;;;5097345;28;20925;-74
2022/09/09 00:39:43;;;;;;;30.00;24.60;;;14.80;99.90;;;;;;5096393;28;20819;-74
2022/09/09 00:43:06;;;;;;;35.37;26.33;;;14.80;99.90;;;;;;5095698;28;20496;-74
2022/09/09 00:46:40;;;;;;;35.57;26.60;;;14.80;99.90;;;;;;5095796;28;20547;-74
2022/09/09 00:50:13;;;;;;;32.27;24.90;;;14.90;99.90;;;;;;5096995;28;20540;-74
2022/09/09 00:53:29;;;;;;;39.17;28.10;;;14.90;99.90;;;;;;5097468;28;20479;-74
2022/09/09 00:56:48;;;;;;;37.43;28.27;;;15.00;99.90;;;;;;5097375;28;20487;-74
2022/09/09 01:03:20;;;;;;;39.50;27.90;;;15.00;99.90;;;;;;5088091;28;20504;-74
2022/09/09 01:07:10;;;;;;;41.20;30.67;;;15.00;99.90;;;;;;5090503;28;20445;-73
2022/09/09 01:17:27;;;;;;;38.07;27.53;;;15.10;99.90;;;;;;5093132;28;20459;-73
2022/09/09 01:20:47;;;;;;;36.10;27.23;;;15.20;99.90;;;;;;5097617;28;20441;-74
2022/09/09 01:24:10;;;;;;;34.77;26.00;;;15.20;99.90;;;;;;5089889;28;20506;-74
2022/09/09 01:27:20;;;;;;;36.90;26.17;;;15.20;99.90;;;;;;5097672;28;20442;-74
2022/09/09 01:30:30;;;;;;;35.83;27.87;;;15.20;99.90;;;;;;5101397;28;21032;-74
2022/09/09 01:33:27;;;;;;;33.87;25.80;;;15.20;99.90;;;;;;5095736;28;20488;-74
2022/09/09 01:36:47;;;;;;;;;;;;;;;;;;;;;
2022/09/09 01:40:12;;;;;;;36.23;26.40;;;15.20;99.90;;;;;;5090737;28;20463;-74
2022/09/09 01:43:18;;;;;;;37.57;26.00;;;15.20;99.90;;;;;;5095169;28;20467;-73
2022/09/09 01:46:26;;;;;;;31.47;24.90;;;15.20;99.90;;;;;;5095255;28;20976;-74
2022/09/09 01:52:43;;;;;;;30.67;25.50;;;15.20;99.90;;;;;;5095295;28;20499;-74
2022/09/09 01:56:17;;;;;;;31.70;25.63;;;15.20;99.90;;;;;;5083462;28;20447;-74
2022/09/09 02:00:00;;;;;;;32.23;24.93;;;15.20;99.90;;;;;;5093836;28;20544;-74
2022/09/09 02:06:39;;;;;;;31.17;23.60;;;15.10;99.90;;;;;;5095978;28;20455;-74
2022/09/09 02:09:37;;;;;;;30.73;24.90;;;15.10;99.90;;;;;;5096181;28;20936;-73
2022/09/09 02:12:52;;;;;;;31.90;22.70;;;15.10;99.90;;;;;;5094824;28;20469;-74
2022/09/09 02:16:00;;;;;;;29.53;23.57;;;15.10;99.90;;;;;;5099682;28;20436;-74
2022/09/09 02:19:18;;;;;;;29.27;23.40;;;15.10;99.90;;;;;;5094200;28;20449;-74
2022/09/09 02:25:32;;;;;;;27.63;22.20;;;15.00;99.90;;;;;;5101392;28;20490;-74
2022/09/09 02:28:38;;;;;;;28.30;22.60;;;15.00;99.90;;;;;;5098200;28;20491;-74
2022/09/09 02:31:43;;;;;;;27.57;22.00;;;15.00;99.90;;;;;;5097453;28;20471;-74
2022/09/09 02:34:59;;;;;;;27.00;21.87;;;15.00;99.90;;;;;;5100712;28;20471;-74
2022/09/09 02:38:17;;;;;;;26.80;23.07;;;15.00;99.90;;;;;;5100603;28;20501;-74
2022/09/09 02:41:13;;;;;;;28.80;23.00;;;15.00;99.90;;;;;;5099641;28;20465;-73
2022/09/09 02:44:14;;;;;;;25.60;21.77;;;15.00;99.90;;;;;;5099908;28;20607;-73
2022/09/09 02:47:40;;;;;;;26.30;21.37;;;14.90;99.90;;;;;;5099183;28;20535;-74
2022/09/09 02:50:42;;;;;;;23.20;20.40;;;14.90;99.90;;;;;;5097180;28;21199;-74
2022/09/09 02:54:06;;;;;;;24.13;21.20;;;14.90;99.90;;;;;;5097685;28;20602;-74
2022/09/09 02:57:38;;;;;;;26.00;21.17;;;14.90;99.90;;;;;;5093332;28;20462;-73
2022/09/09 03:07:16;;;;;;;26.07;21.87;;;14.90;99.90;;;;;;5094904;28;20440;-74
2022/09/09 03:10:28;;;;;;;26.50;21.00;;;14.80;99.90;;;;;;5100595;28;21251;-74
2022/09/09 03:13:56;;;;;;;;;;;;;;;;;;;;;
2022/09/09 03:17:11;;;;;;;24.90;20.00;;;14.90;99.90;;;;;;5099921;28;20860;-74
2022/09/09 03:20:53;;;;;;;23.73;19.60;;;14.80;99.90;;;;;;5095581;28;20452;-74
2022/09/09 03:23:59;;;;;;;23.60;19.63;;;14.80;99.90;;;;;;5097397;28;21012;-74
2022/09/09 03:27:28;;;;;;;21.63;18.73;;;14.80;99.90;;;;;;5099373;28;20453;-74
2022/09/09 03:30:37;;;;;;;22.80;19.00;;;14.80;99.90;;;;;;5099658;28;20475;-73
2022/09/09 03:33:40;;;;;;;23.03;20.33;;;14.80;99.90;;;;;;5099246;28;20463;-74
2022/09/09 03:40:17;;;;;;;24.63;19.57;;;14.70;99.90;;;;;;5097183;28;20452;-74
2022/09/09 03:43:31;;;;;;;;;;;;;;;;;;;;;
2022/09/09 03:46:38;;;;;;;25.43;20.33;;;14.70;99.90;;;;;;5099444;28;20451;-73
2022/09/09 03:49:36;;;;;;;26.60;21.33;;;14.70;99.90;;;;;;5097836;28;20472;-74
2022/09/09 03:52:57;;;;;;;23.83;21.23;;;14.70;99.90;;;;;;5099078;28;20484;-74
2022/09/09 03:56:01;;;;;;;23.97;19.77;;;14.60;99.90;;;;;;5098456;28;20441;-73
2022/09/09 03:59:23;;;;;;;22.10;19.13;;;14.60;99.90;;;;;;5094355;28;20472;-73
2022/09/09 04:02:39;;;;;;;26.73;21.30;;;14.60;99.90;;;;;;5098807;28;20469;-74
2022/09/09 04:05:39;;;;;;;27.47;21.23;;;14.60;99.90;;;;;;5097636;28;20484;-74
2022/09/09 04:08:44;;;;;;;24.43;20.43;;;14.70;99.90;;;;;;5101224;28;20488;-74
2022/09/09 04:12:02;;;;;;;26.53;20.83;;;14.70;99.90;;;;;;5098902;28;20547;-74
2022/09/09 04:18:53;;;;;;;23.80;20.77;;;14.70;99.90;;;;;;5093141;28;20452;-74
2022/09/09 04:21:48;;;;;;;25.33;20.03;;;14.60;99.90;;;;;;5095861;28;20494;-74
2022/09/09 04:25:22;;;;;;;21.77;18.67;;;14.60;99.90;;;;;;5091785;28;20448;-73
2022/09/09 04:28:35;;;;;;;23.80;19.17;;;14.60;99.90;;;;;;5089325;28;20540;-74
2022/09/09 04:32:17;;;;;;;20.63;18.40;;;14.60;99.90;;;;;;5089841;28;20476;-74
2022/09/09 04:35:33;;;;;;;23.00;17.20;;;14.50;99.90;;;;;;5092002;28;20924;-73
2022/09/09 04:38:29;;;;;;;21.53;18.70;;;14.50;99.90;;;;;;5088971;28;20956;-74
2022/09/09 04:41:31;;;;;;;19.23;16.97;;;14.50;99.90;;;;;;5086966;28;20465;-73
2022/09/09 04:44:40;;;;;;;22.80;19.03;;;14.50;99.90;;;;;;5092395;28;20472;-73
2022/09/09 04:47:53;;;;;;;20.57;17.80;;;14.50;99.90;;;;;;5090939;28;20453;-74
2022/09/09 04:50:54;;;;;;;20.47;17.97;;;14.50;99.90;;;;;;5091401;28;20825;-74
2022/09/09 04:53:54;;;;;;;21.30;18.70;;;14.50;99.90;;;;;;5089644;28;20481;-74
2022/09/09 04:56:48;;;;;;;19.90;17.00;;;14.50;99.90;;;;;;5092637;28;20461;-72
2022/09/09 05:02:49;;;;;;;21.67;17.50;;;14.50;99.90;;;;;;5097175;28;20490;-72
2022/09/09 05:05:51;;;;;;;17.80;16.00;;;14.50;99.90;;;;;;5091913;28;20455;-74
2022/09/09 05:08:45;;;;;;;17.23;15.33;;;14.50;99.90;;;;;;5083024;28;20460;-73
2022/09/09 05:12:02;;;;;;;16.43;14.50;;;14.50;99.90;;;;;;5084248;28;20587;-72
2022/09/09 05:18:42;;;;;;;15.80;14.30;;;14.50;99.90;;;;;;5076125;28;20496;-73
2022/09/09 05:21:58;;;;;;;14.83;13.33;;;14.60;99.90;;;;;;5088840;28;21141;-73
2022/09/09 05:25:01;;;;;;;14.27;12.93;;;14.60;99.90;;;;;;5081138;28;20466;-73
2022/09/09 05:27:54;;;;;;;14.53;13.10;;;14.60;99.90;;;;;;5076709;28;20459;-73
2022/09/09 05:30:46;;;;;;;14.27;12.80;;;14.60;99.90;;;;;;5074537;28;20480;-73
2022/09/09 05:33:36;;;;;;;15.10;13.60;;;14.60;99.90;;;;;;5078694;28;20839;-74
2022/09/09 05:36:33;;;;;;;13.97;12.67;;;14.50;99.90;;;;;;5090713;28;20982;-72
2022/09/09 05:39:23;;;;;;;13.97;12.63;;;14.60;99.90;;;;;;5089717;28;20494;-71
2022/09/09 05:42:14;;;;;;;13.80;12.37;;;14.50;99.90;;;;;;5090041;28;20467;-74
2022/09/09 05:45:10;;;;;;;13.30;12.10;;;14.60;99.90;;;;;;5097236;28;20452;-72
2022/09/09 05:48:03;;;;;;;13.03;11.83;;;14.60;99.90;;;;;;5080320;28;20460;-72
2022/09/09 05:50:57;;;;;;;14.20;12.80;;;14.60;99.90;;;;;;5084862;28;21002;-73
2022/09/09 05:53:47;;;;;;;13.43;12.23;;;14.60;99.90;;;;;;5081194;28;20502;-72
2022/09/09 05:56:40;;;;;;;13.30;12.00;;;14.60;99.90;;;;;;5082383;28;20833;-72
2022/09/09 05:59:41;;;;;;;13.43;12.13;;;14.70;99.90;;;;;;5090784;28;20448;-72
2022/09/09 06:02:33;;;;;;;12.27;11.07;;;14.70;99.90;;;;;;5083762;28;20479;-72
2022/09/09 06:05:27;;;;;;;14.50;13.17;;;14.70;99.90;;;;;;5085210;28;20459;-72
2022/09/09 06:08:16;;;;;;;12.73;11.43;;;14.70;99.90;;;;;;5068375;28;20471;-71
2022/09/09 06:11:06;;;;;;;13.07;11.77;;;14.80;99.90;;;;;;5070999;28;21687;-72
2022/09/09 06:13:54;;;;;;;13.00;11.80;;;14.80;99.90;;;;;;5085329;28;20475;-73
2022/09/09 06:16:43;;;;;;;12.70;11.50;;;14.90;99.90;;;;;;5086072;28;20909;-72
2022/09/09 06:19:32;;;;;;;11.63;10.53;;;14.90;99.90;;;;;;5081465;28;20979;-72
2022/09/09 06:22:24;;;;;;;11.17;10.07;;;14.90;99.90;;;;;;5078215;28;21098;-72
2022/09/09 06:25:12;;;;;;;11.03;10.03;;;14.90;99.90;;;;;;5091745;28;20457;-72
2022/09/09 06:28:00;;;;;;;11.50;10.50;;;14.90;99.90;;;;;;5082718;28;20464;-72
2022/09/09 06:30:48;;;;;;;11.23;10.23;;;15.00;99.90;;;;;;5073894;28;20487;-72
2022/09/09 06:33:40;;;;;;;10.53;9.60;;;15.00;99.90;;;;;;5083088;28;20487;-72
2022/09/09 06:36:30;;;;;;;11.20;10.20;;;14.90;99.90;;;;;;5084178;28;20452;-72
2022/09/09 06:39:21;;;;;;;10.17;9.27;;;15.00;99.90;;;;;;5078806;28;20491;-71
2022/09/09 06:42:09;;;;;;;10.47;9.50;;;15.00;99.90;;;;;;5075732;28;20479;-71
2022/09/09 06:44:58;;;;;;;9.90;9.10;;;15.00;99.90;;;;;;5080081;28;20453;-72
2022/09/09 06:47:46;;;;;;;9.60;8.70;;;15.00;99.90;;;;;;5081920;28;20471;-72
2022/09/09 06:50:35;;;;;;;9.07;8.17;;;15.10;99.90;;;;;;5076915;28;20472;-71
2022/09/09 06:53:23;;;;;;;9.80;8.90;;;15.10;99.90;;;;;;5074398;28;20851;-72
2022/09/09 06:56:32;;;;;;;9.87;8.97;;;15.10;99.90;;;;;;5062966;28;20456;-73
2022/09/09 06:59:22;;;;;;;12.03;10.60;;;15.10;99.90;;;;;;5076303;28;20482;-72
2022/09/09 07:02:11;;;;;;;10.37;9.37;;;15.10;99.90;;;;;;5073891;28;20480;-72
2022/09/09 07:04:59;;;;;;;10.30;9.40;;;15.20;99.90;;;;;;5090196;28;20460;-72
2022/09/09 07:07:51;;;;;;;11.50;9.90;;;15.20;99.90;;;;;;5087249;28;20463;-71
2022/09/09 07:10:43;;;;;;;12.20;9.53;;;15.20;99.90;;;;;;5082144;28;20479;-72
2022/09/09 07:13:35;;;;;;;10.03;9.03;;;15.20;99.90;;;;;;5089243;28;20466;-72
2022/09/09 07:16:24;;;;;;;12.87;11.57;;;15.30;99.90;;;;;;5086538;28;20465;-73
2022/09/09 07:19:14;;;;;;;14.13;10.97;;;15.40;99.90;;;;;;5084274;28;20482;-72
2022/09/09 07:22:03;;;;;;;19.20;15.50;;;15.40;99.90;;;;;;5087992;28;20485;-72
2022/09/09 07:24:51;;;;;;;16.43;12.70;;;15.50;99.90;;;;;;5084847;28;20448;-72
2022/09/09 07:27:41;;;;;;;11.70;10.50;;;15.60;99.90;;;;;;5088069;28;20464;-72
2022/09/09 07:30:30;;;;;;;10.40;9.33;;;15.70;99.90;;;;;;5081708;28;20828;-72
2022/09/09 07:33:19;;;;;;;10.13;9.23;;;15.70;99.90;;;;;;5087297;28;20476;-72
2022/09/09 07:36:14;;;;;;;9.00;8.10;;;15.80;99.90;;;;;;5089396;28;20484;-72
2022/09/09 07:39:04;;;;;;;9.17;8.27;;;15.80;99.90;;;;;;5079035;28;20465;-72
2022/09/09 07:41:54;;;;;;;10.07;8.67;;;15.80;99.90;;;;;;5079139;28;22685;-72
2022/09/09 07:44:42;;;;;;;8.37;7.67;;;15.90;99.90;;;;;;5084088;28;20449;-72
2022/09/09 07:47:31;;;;;;;8.77;7.80;;;15.90;99.90;;;;;;5074271;28;20453;-72
2022/09/09 07:50:19;;;;;;;9.13;7.63;;;16.00;99.90;;;;;;5080642;28;20448;-71
2022/09/09 07:53:08;;;;;;;7.60;6.87;;;16.00;99.90;;;;;;5080865;28;20575;-73
2022/09/09 07:55:56;;;;;;;8.17;7.37;;;16.10;99.90;;;;;;5079800;28;20458;-72
2022/09/09 07:58:46;;;;;;;8.23;7.23;;;16.10;99.90;;;;;;5082142;28;20452;-72
2022/09/09 08:01:38;;;;;;;7.97;7.27;;;16.20;99.90;;;;;;5077415;28;20852;-72
2022/09/09 08:04:37;;;;;;;7.83;7.13;;;16.20;99.90;;;;;;5082836;28;21085;-72
2022/09/09 08:07:26;;;;;;;8.47;7.50;;;16.30;99.90;;;;;;5082552;28;20456;-72
2022/09/09 08:10:15;;;;;;;7.97;7.27;;;16.30;99.90;;;;;;5071630;28;20474;-71
2022/09/09 08:13:05;;;;;;;7.67;7.07;;;16.40;99.90;;;;;;5081075;28;20476;-72
2022/09/09 08:16:08;;;;;;;10.03;6.73;;;16.40;99.90;;;;;;5069957;28;20453;-73
2022/09/09 08:18:56;;;;;;;7.67;6.20;;;16.50;99.90;;;;;;5076680;28;20443;-72
2022/09/09 08:21:48;;;;;;;7.00;6.30;;;16.50;99.90;;;;;;5079153;28;21218;-72
2022/09/09 08:24:36;;;;;;;6.87;6.27;;;16.60;99.90;;;;;;5078034;28;20470;-73
2022/09/09 08:27:25;;;;;;;11.33;7.20;;;16.70;99.90;;;;;;5082890;28;20463;-72
2022/09/09 08:30:16;;;;;;;6.87;6.27;;;16.70;99.90;;;;;;5067913;28;21072;-73
2022/09/09 08:33:05;;;;;;;6.63;6.03;;;16.80;99.90;;;;;;5074950;28;20563;-72
2022/09/09 08:35:53;;;;;;;6.60;6.00;;;16.80;99.90;;;;;;5076166;28;20474;-72
2022/09/09 08:38:43;;;;;;;7.23;6.27;;;16.90;99.90;;;;;;5077326;28;20496;-72
2022/09/09 08:41:47;;;;;;;6.33;5.80;;;16.90;99.90;;;;;;5077056;28;20448;-71
2022/09/09 08:45:01;;;;;;;6.27;5.23;;;17.00;99.90;;;;;;5081332;28;20485;-73
2022/09/09 08:48:04;;;;;;;6.53;5.93;;;17.00;99.90;;;;;;5078385;28;20479;-71
2022/09/09 08:50:54;;;;;;;6.20;5.60;;;17.00;99.90;;;;;;5072935;28;20445;-71
2022/09/09 08:53:47;;;;;;;7.40;5.90;;;17.00;99.90;;;;;;5078055;28;20587;-72
2022/09/09 08:56:36;;;;;;;6.07;5.40;;;17.10;99.90;;;;;;5076760;28;20462;-72
2022/09/09 08:59:24;;;;;;;6.20;5.63;;;17.10;99.90;;;;;;5078873;28;20461;-73
2022/09/09 09:02:18;;;;;;;7.10;6.40;;;17.10;99.90;;;;;;5082434;28;20471;-73
2022/09/09 09:05:18;;;;;;;7.40;6.80;;;17.20;99.90;;;;;;5085704;28;20455;-72
2022/09/09 09:08:15;;;;;;;6.07;5.57;;;17.10;99.90;;;;;;5090563;28;20449;-72
2022/09/09 09:11:06;;;;;;;7.53;6.50;;;17.20;99.90;;;;;;5081174;28;20445;-72
2022/09/09 09:13:59;;;;;;;6.23;5.47;;;17.30;99.90;;;;;;5081803;28;20488;-72
2022/09/09 09:16:53;;;;;;;6.60;6.00;;;17.30;99.90;;;;;;5082423;28;20453;-73
2022/09/09 09:19:43;;;;;;;6.13;5.53;;;17.30;99.90;;;;;;5080831;28;20456;-72
2022/09/09 09:22:40;;;;;;;5.70;5.20;;;17.40;99.90;;;;;;5079248;28;20916;-72
2022/09/09 09:25:33;;;;;;;5.83;4.60;;;17.40;99.90;;;;;;5084723;28;20437;-74
2022/09/09 09:28:25;;;;;;;4.70;4.30;;;17.50;99.90;;;;;;5085837;28;21107;-72
2022/09/09 09:31:14;;;;;;;5.20;4.53;;;17.60;99.90;;;;;;5083962;28;20473;-73
2022/09/09 09:34:02;;;;;;;4.60;4.20;;;17.70;99.90;;;;;;5086604;28;20569;-72
2022/09/09 09:36:55;;;;;;;4.50;4.10;;;17.80;99.90;;;;;;5081350;28;20476;-72
2022/09/09 09:39:43;;;;;;;3.40;3.10;;;17.90;99.90;;;;;;5085255;28;20824;-72
2022/09/09 09:42:54;;;;;;;3.63;3.33;;;17.90;99.90;;;;;;5083700;28;20472;-72
2022/09/09 09:45:45;;;;;;;5.47;3.47;;;18.10;99.90;;;;;;5083465;28;20466;-72
2022/09/09 09:49:01;;;;;;;3.73;3.43;;;18.10;99.90;;;;;;5083111;28;20450;-72
2022/09/09 09:51:49;;;;;;;4.23;3.30;;;18.20;99.90;;;;;;5081674;28;20477;-71
2022/09/09 09:54:42;;;;;;;4.33;3.90;;;18.20;99.90;;;;;;5083272;28;21310;-72
2022/09/09 09:57:33;;;;;;;5.23;4.00;;;18.30;99.90;;;;;;5081667;28;20460;-72
2022/09/09 10:00:23;;;;;;;5.50;3.40;;;18.30;99.90;;;;;;5083405;28;20518;-72
2022/09/09 10:03:22;;;;;;;4.07;3.33;;;18.40;99.90;;;;;;5082230;28;20490;-72
2022/09/09 10:06:11;;;;;;;3.83;3.53;;;18.50;99.90;;;;;;5072002;28;20449;-71
2022/09/09 10:08:59;;;;;;;3.40;3.20;;;18.50;99.90;;;;;;5072796;28;22472;-72
2022/09/09 10:11:56;;;;;;;3.47;2.33;;;18.60;99.90;;;;;;5073085;28;20477;-73
2022/09/09 10:14:52;;;;;;;3.03;2.30;;;18.60;99.90;;;;;;5064765;28;20455;-71
2022/09/09 10:17:54;;;;;;;2.77;2.57;;;18.70;99.90;;;;;;5068331;28;21493;-72
2022/09/09 10:20:52;;;;;;;5.93;2.80;;;18.80;99.90;;;;;;5079435;28;20457;-73
2022/09/09 10:23:57;;;;;;;3.53;2.50;;;18.90;99.90;;;;;;5082403;28;20483;-72
2022/09/09 10:26:59;;;;;;;3.20;2.90;;;19.10;99.90;;;;;;5083802;28;20490;-73
2022/09/09 10:30:08;;;;;;;3.10;2.50;;;19.10;99.90;;;;;;5085537;28;20454;-72
2022/09/09 10:33:05;;;;;;;2.40;2.20;;;19.10;99.90;;;;;;5084988;28;21451;-72
2022/09/09 10:36:05;;;;;;;2.30;2.10;;;19.10;99.90;;;;;;5087403;28;20491;-72
2022/09/09 10:39:00;;;;;;;3.07;2.43;;;19.20;99.90;;;;;;5084764;28;22734;-72
2022/09/09 10:42:02;;;;;;;2.50;2.30;;;19.30;99.90;;;;;;5087911;28;21056;-73
2022/09/09 10:45:02;;;;;;;5.53;2.70;;;19.30;99.90;;;;;;5079059;28;20453;-72
2022/09/09 10:48:09;;;;;;;3.20;2.20;;;19.30;99.90;;;;;;5082564;28;20469;-73
2022/09/09 10:51:07;;;;;;;2.90;2.07;;;19.40;99.90;;;;;;5084167;28;20456;-73
2022/09/09 10:54:14;;;;;;;2.40;2.20;;;19.50;99.90;;;;;;5079880;28;20485;-73
2022/09/09 10:57:08;;;;;;;2.43;1.93;;;19.60;99.90;;;;;;5071467;28;20444;-72
2022/09/09 11:00:03;;;;;;;1.77;1.67;;;19.70;99.90;;;;;;5084756;28;20532;-72
2022/09/09 11:02:56;;;;;;;2.27;1.93;;;19.80;99.90;;;;;;5076689;28;20467;-72
2022/09/09 11:05:49;;;;;;;2.53;1.77;;;19.90;99.90;;;;;;5083994;28;20988;-72
2022/09/09 11:08:40;;;;;;;1.90;1.67;;;19.90;99.90;;;;;;5083394;28;20463;-72
2022/09/09 11:11:34;;;;;;;1.70;1.60;;;19.90;99.90;;;;;;5087645;28;20479;-72
2022/09/09 11:14:29;;;;;;;1.83;1.50;;;20.00;99.90;;;;;;5078809;28;20524;-72
2022/09/09 11:17:27;;;;;;;1.80;1.70;;;20.10;99.90;;;;;;5073605;28;20447;-73
2022/09/09 11:20:16;;;;;;;1.73;1.60;;;20.20;99.90;;;;;;5084675;28;20444;-73
2022/09/09 11:23:10;;;;;;;1.70;1.33;;;20.20;99.90;;;;;;5081064;28;20921;-73
2022/09/09 11:26:04;;;;;;;2.50;1.50;;;20.40;99.90;;;;;;5057406;28;20582;-74
2022/09/09 11:29:07;;;;;;;1.93;1.80;;;20.40;99.90;;;;;;5064511;28;20458;-73
2022/09/09 11:32:09;;;;;;;3.10;1.70;;;20.50;99.90;;;;;;5080070;28;20479;-73
2022/09/09 11:35:22;;;;;;;2.20;1.90;;;20.70;99.90;;;;;;5085135;28;20962;-73
2022/09/09 11:38:19;;;;;;;3.03;2.00;;;20.90;99.90;;;;;;5066886;28;20459;-72
2022/09/09 11:41:10;;;;;;;3.53;2.37;;;21.00;99.90;;;;;;5061458;28;20517;-73
2022/09/09 11:43:58;;;;;;;3.67;2.23;;;21.10;99.90;;;;;;5078182;28;20468;-71
2022/09/09 11:46:49;;;;;;;2.83;1.87;;;21.10;99.90;;;;;;5075186;28;20450;-71
2022/09/09 11:49:42;;;;;;;2.50;2.27;;;21.10;99.90;;;;;;5077883;28;20513;-71
2022/09/09 11:52:38;;;;;;;3.00;2.00;;;21.10;99.90;;;;;;5077611;28;20496;-71
2022/09/09 11:55:29;;;;;;;1.93;1.83;;;21.00;99.90;;;;;;5074939;28;20971;-72
2022/09/09 11:58:23;;;;;;;3.63;2.13;;;20.90;99.90;;;;;;5077756;28;20457;-71
2022/09/09 12:01:16;;;;;;;2.50;2.30;;;20.80;99.90;;;;;;5075057;28;20488;-73
2022/09/09 12:04:31;;;;;;;2.10;1.83;;;20.70;99.90;;;;;;5083746;28;20468;-71
2022/09/09 12:07:35;;;;;;;2.43;2.03;;;20.70;99.90;;;;;;5073441;28;20452;-72
2022/09/09 12:10:28;;;;;;;2.27;2.07;;;20.70;99.90;;;;;;5080996;28;20450;-73
2022/09/09 12:13:19;;;;;;;5.50;2.97;;;20.70;99.90;;;;;;5078307;28;20489;-72
2022/09/09 12:16:29;;;;;;;2.80;2.60;;;20.70;99.90;;;;;;5073584;28;20451;-72
2022/09/09 12:19:21;;;;;;;3.40;2.37;;;20.60;99.90;;;;;;5069973;28;20916;-72
2022/09/09 12:22:28;;;;;;;2.67;2.47;;;20.60;99.90;;;;;;5069318;28;20884;-71
2022/09/09 12:25:26;;;;;;;3.77;2.60;;;20.50;99.90;;;;;;5085257;28;20444;-71
2022/09/09 12:28:24;;;;;;;7.40;2.30;;;20.50;99.90;;;;;;5084405;28;20445;-71
2022/09/09 12:31:18;;;;;;;2.43;2.23;;;20.50;99.90;;;;;;5080255;28;20477;-73
2022/09/09 12:34:17;;;;;;;3.03;2.70;;;20.40;99.90;;;;;;5080478;28;20476;-72
2022/09/09 12:37:13;;;;;;;3.27;2.03;;;20.40;99.90;;;;;;5088509;28;20464;-73
2022/09/09 12:40:04;;;;;;;1.87;1.77;;;20.50;99.90;;;;;;5084463;28;20448;-73
2022/09/09 12:42:53;;;;;;;2.93;2.50;;;20.60;99.90;;;;;;5076391;28;20519;-73
2022/09/09 12:45:45;;;;;;;2.50;2.13;;;20.70;99.90;;;;;;5086017;28;20969;-73
2022/09/09 12:48:37;;;;;;;2.93;2.57;;;20.70;99.90;;;;;;5083647;28;20996;-73
2022/09/09 12:51:29;;;;;;;2.70;2.50;;;20.70;99.90;;;;;;5078654;28;20468;-73
2022/09/09 12:54:17;;;;;;;3.20;2.60;;;20.70;99.90;;;;;;5079057;28;20472;-72
2022/09/09 12:57:06;;;;;;;3.30;3.00;;;20.60;99.90;;;;;;5081388;28;20449;-73
2022/09/09 13:00:07;;;;;;;3.70;2.20;;;20.60;99.90;;;;;;5072993;28;20455;-73
2022/09/09 13:03:01;;;;;;;2.83;2.63;;;20.50;99.90;;;;;;5078544;28;20490;-72
2022/09/09 13:05:50;;;;;;;2.93;2.70;;;20.40;99.90;;;;;;5084395;28;21048;-73
2022/09/09 13:08:38;;;;;;;2.80;2.60;;;20.40;99.90;;;;;;5083479;28;20449;-73
2022/09/09 13:11:31;;;;;;;3.50;3.00;;;20.30;99.90;;;;;;5080725;28;20478;-72
2022/09/09 13:14:23;;;;;;;6.77;2.70;;;20.20;99.90;;;;;;5079097;28;20570;-72
2022/09/09 13:17:21;;;;;;;4.60;3.07;;;20.10;99.90;;;;;;5074213;28;20536;-72
2022/09/09 13:20:18;;;;;;;4.80;3.10;;;20.10;99.90;;;;;;5071233;28;20452;-72
2022/09/09 13:23:06;;;;;;;4.33;3.40;;;20.10;99.90;;;;;;5060917;28;20540;-72
2022/09/09 13:25:56;;;;;;;3.40;3.10;;;20.00;99.90;;;;;;5071384;28;20453;-71
2022/09/09 13:28:46;;;;;;;4.07;3.60;;;19.90;99.90;;;;;;5066770;28;20500;-72
2022/09/09 13:31:37;;;;;;;3.60;3.40;;;19.80;99.90;;;;;;5087924;28;21039;-72
2022/09/09 13:34:29;;;;;;;3.90;3.60;;;19.80;99.90;;;;;;5081556;28;20479;-72
2022/09/09 13:37:25;;;;;;;4.33;3.70;;;19.70;99.90;;;;;;5080995;28;20464;-72
2022/09/09 13:40:19;;;;;;;5.13;4.40;;;19.60;99.90;;;;;;5084321;28;20473;-72
2022/09/09 13:43:19;;;;;;;4.40;4.10;;;19.50;99.90;;;;;;5086948;28;20514;-72
2022/09/09 13:46:26;;;;;;;5.23;4.70;;;19.40;99.90;;;;;;5086512;28;20803;-72
2022/09/09 13:49:22;;;;;;;6.00;4.23;;;19.30;99.90;;;;;;5083959;28;20478;-72
2022/09/09 13:52:12;;;;;;;4.67;4.27;;;19.20;99.90;;;;;;5085724;28;20551;-73
2022/09/09 13:55:02;;;;;;;7.30;4.90;;;19.10;99.90;;;;;;5088171;28;20982;-72
2022/09/09 13:58:00;;;;;;;6.60;4.67;;;19.00;99.90;;;;;;5086591;28;20447;-72
2022/09/09 14:00:49;;;;;;;4.67;4.27;;;18.80;99.90;;;;;;5083687;28;20444;-72
2022/09/09 14:03:37;;;;;;;5.33;4.37;;;18.70;99.90;;;;;;5080816;28;20495;-71
2022/09/09 14:06:29;;;;;;;4.83;4.40;;;18.70;99.90;;;;;;5081854;28;21372;-72
2022/09/09 14:09:20;;;;;;;4.60;4.20;;;18.60;99.90;;;;;;5087448;28;20460;-72
2022/09/09 14:12:12;;;;;;;4.93;4.47;;;18.60;99.90;;;;;;5076097;28;20475;-72
2022/09/09 14:15:00;;;;;;;4.80;4.03;;;18.60;99.90;;;;;;5085419;28;20567;-72
2022/09/09 14:17:49;;;;;;;5.03;4.63;;;18.50;99.90;;;;;;5086177;28;20448;-72
2022/09/09 14:20:38;;;;;;;5.67;5.10;;;18.50;99.90;;;;;;5088118;28;20459;-72
2022/09/09 14:23:26;;;;;;;5.37;4.30;;;18.40;99.90;;;;;;5088858;28;20487;-72
2022/09/09 14:26:14;;;;;;;5.63;5.23;;;18.40;99.90;;;;;;5094251;28;20464;-72
2022/09/09 14:29:04;;;;;;;6.00;5.47;;;18.30;99.90;;;;;;5082823;28;20460;-72
2022/09/09 14:31:52;;;;;;;5.60;5.17;;;18.30;99.90;;;;;;5089146;28;20480;-72
2022/09/09 14:34:40;;;;;;;4.50;4.10;;;18.30;99.90;;;;;;5088817;28;20483;-72
2022/09/09 14:37:30;;;;;;;5.70;4.67;;;18.30;99.90;;;;;;5086273;28;20452;-72
2022/09/09 14:40:19;;;;;;;4.80;4.40;;;18.30;99.90;;;;;;5087480;28;20598;-72
2022/09/09 14:43:07;;;;;;;4.93;4.53;;;18.10;99.90;;;;;;5089856;28;20480;-72
2022/09/09 14:46:01;;;;;;;5.13;4.47;;;18.10;99.90;;;;;;5087503;28;20472;-72
2022/09/09 14:48:50;;;;;;;4.90;4.50;;;18.10;99.90;;;;;;5090710;28;20822;-72
2022/09/09 14:51:38;;;;;;;3.40;3.10;;;18.10;99.90;;;;;;5088025;28;21117;-72
2022/09/09 14:54:26;;;;;;;3.47;3.20;;;18.00;99.90;;;;;;5087178;28;20995;-73
2022/09/09 14:57:14;;;;;;;4.10;3.80;;;18.00;99.90;;;;;;5091767;28;20452;-72
2022/09/09 15:00:06;;;;;;;4.77;4.37;;;18.00;99.90;;;;;;5087959;28;20453;-73
2022/09/09 15:02:56;;;;;;;4.47;3.87;;;17.90;99.90;;;;;;5081554;28;20488;-74
2022/09/09 15:05:44;;;;;;;4.40;4.03;;;17.90;99.90;;;;;;5082634;28;20451;-75
2022/09/09 15:08:33;;;;;;;4.67;4.17;;;17.80;99.90;;;;;;5090840;28;20971;-75
2022/09/09 15:11:24;;;;;;;4.50;4.10;;;17.80;99.90;;;;;;5090457;28;20464;-73
2022/09/09 15:14:12;;;;;;;3.80;3.50;;;17.80;99.90;;;;;;5082974;28;20515;-72
2022/09/09 15:17:13;;;;;;;4.80;4.27;;;17.80;99.90;;;;;;5081156;28;20467;-73
2022/09/09 15:20:03;;;;;;;4.17;3.77;;;17.70;99.90;;;;;;5080465;28;20448;-73
2022/09/09 15:22:54;;;;;;;4.20;3.80;;;17.70;99.90;;;;;;5082809;28;20495;-73
2022/09/09 15:25:51;;;;;;;4.17;3.70;;;17.70;99.90;;;;;;5081825;28;20467;-73
2022/09/09 15:28:43;;;;;;;4.90;4.40;;;17.60;99.90;;;;;;5085970;28;20444;-73
2022/09/09 15:31:32;;;;;;;5.30;4.70;;;17.60;99.90;;;;;;5075802;28;20479;-73
2022/09/09 15:34:20;;;;;;;5.33;4.17;;;17.60;99.90;;;;;;5081914;28;20994;-72
2022/09/09 15:37:13;;;;;;;4.57;4.17;;;17.60;99.90;;;;;;5073696;28;20969;-73
2022/09/09 15:40:01;;;;;;;3.70;3.40;;;17.60;99.90;;;;;;5079418;28;20458;-73
2022/09/09 15:42:50;;;;;;;3.90;3.60;;;17.60;99.90;;;;;;5081918;28;20855;-73
2022/09/09 15:45:38;;;;;;;3.70;3.40;;;17.60;99.90;;;;;;5081602;28;20475;-72
2022/09/09 15:48:32;;;;;;;3.20;2.90;;;17.60;99.90;;;;;;5087426;28;20461;-73
2022/09/09 15:51:20;;;;;;;4.17;3.80;;;17.60;99.90;;;;;;5076715;28;20506;-73
2022/09/09 15:54:33;;;;;;;4.47;4.07;;;17.60;99.90;;;;;;5086474;28;20473;-74
2022/09/09 15:57:21;;;;;;;3.53;3.23;;;17.70;99.90;;;;;;5075090;28;20479;-74
2022/09/09 16:00:12;;;;;;;2.80;2.60;;;17.70;99.90;;;;;;5091011;28;20448;-73
2022/09/09 16:03:02;;;;;;;3.17;2.90;;;17.70;99.90;;;;;;5091983;28;20476;-73
2022/09/09 16:05:52;;;;;;;2.87;2.63;;;17.70;99.90;;;;;;5075186;28;20451;-73